Andice, Texas
Current Conditions -  °F | °C
As of 9:51 AM on Sunday 23 Nov 2014 (Local Time) from KGTU Reporting Station
Clear Clear  
Wind Chill: 19°   Ceiling: Unl
Heat Index: 19°   Visibility: 10mi
Dew Point: 11°   Wind: 15mph
Humidity: 60%   Direction: 240°WSW
Pressure: 29.63"   Gusts: 21mph
Location:  30.6575°N, 97.7523°W
Report Text: KGTU 231551Z 24013G18KT 10SM SKC 19/11 A2963
Loading
Personal Weather Stations






























Interactive Weather Map New forecast layout! Learn more

10-Day Weather Forecast

Advertisements
Track Severe Weather on mobile